createdAt,value
2023-05-06T00:01:08.741Z,12.90
2023-05-06T00:03:41.132Z,12.90
2023-05-06T00:06:13.505Z,12.90
2023-05-06T00:08:46.185Z,12.90
2023-05-06T00:11:18.733Z,12.90
2023-05-06T00:13:51.038Z,12.90
2023-05-06T00:16:23.489Z,12.90
2023-05-06T00:18:56.154Z,12.90
2023-05-06T00:21:28.615Z,12.90
2023-05-06T00:24:00.922Z,13.00
2023-05-06T00:26:33.132Z,13.00
2023-05-06T00:29:05.398Z,12.90
2023-05-06T00:31:37.855Z,12.90
2023-05-06T00:34:10.280Z,12.90
2023-05-06T00:36:43.071Z,12.90
2023-05-06T00:39:15.182Z,12.90
2023-05-06T00:41:47.580Z,12.70
2023-05-06T00:44:19.692Z,12.70
2023-05-06T00:46:52.410Z,12.70
2023-05-06T00:49:25.140Z,12.60
2023-05-06T00:51:58.837Z,12.70
2023-05-06T00:54:31.430Z,12.60
2023-05-06T00:57:03.938Z,12.60
2023-05-06T00:59:36.179Z,12.60
2023-05-06T01:02:09.536Z,12.70
2023-05-06T01:04:42.704Z,12.70
2023-05-06T01:07:33.798Z,12.70
2023-05-06T01:10:31.287Z,12.70
2023-05-06T01:13:26.181Z,12.60
2023-05-06T01:16:01.495Z,12.60
2023-05-06T01:18:35.021Z,12.60
2023-05-06T01:21:07.975Z,12.40
2023-05-06T01:24:00.235Z,12.30
2023-05-06T01:26:32.544Z,12.30
2023-05-06T01:29:05.204Z,12.30
2023-05-06T01:31:45.719Z,12.20
2023-05-06T01:34:27.539Z,12.20
2023-05-06T01:37:23.494Z,12.20
2023-05-06T01:40:00.439Z,12.20
2023-05-06T01:42:34.398Z,12.20
2023-05-06T01:45:09.083Z,12.30
2023-05-06T01:47:44.816Z,12.40
2023-05-06T01:50:17.160Z,12.30
2023-05-06T01:53:03.258Z,12.40
2023-05-06T01:55:35.433Z,12.30
2023-05-06T01:58:07.526Z,12.20
2023-05-06T02:00:39.867Z,12.20
2023-05-06T02:03:12.092Z,12.10
2023-05-06T02:05:44.881Z,12.00
2023-05-06T02:08:17.183Z,12.00
2023-05-06T02:10:50.927Z,12.00
2023-05-06T02:13:24.361Z,12.00
2023-05-06T02:15:57.040Z,12.00
2023-05-06T02:18:29.706Z,11.90
2023-05-06T02:21:02.339Z,11.90
2023-05-06T02:23:34.513Z,11.90
2023-05-06T02:26:06.706Z,11.90
2023-05-06T02:28:38.970Z,11.90
2023-05-06T02:31:14.976Z,11.80
2023-05-06T02:33:47.718Z,11.70
2023-05-06T02:36:19.890Z,11.80
2023-05-06T02:38:52.805Z,11.80
2023-05-06T02:41:24.994Z,11.80
2023-05-06T02:43:57.775Z,11.80
2023-05-06T02:46:29.924Z,11.90
2023-05-06T02:49:02.329Z,11.90
2023-05-06T02:51:35.354Z,12.00
2023-05-06T02:54:07.702Z,11.90
2023-05-06T02:56:42.765Z,11.80
2023-05-06T02:59:15.033Z,11.80
2023-05-06T03:01:47.211Z,11.80
2023-05-06T03:04:19.499Z,11.90
2023-05-06T03:06:51.930Z,11.80
2023-05-06T03:09:24.208Z,11.70
2023-05-06T03:11:58.037Z,11.60
2023-05-06T03:14:30.678Z,11.80
2023-05-06T03:17:03.709Z,11.80
2023-05-06T03:19:37.903Z,11.80
2023-05-06T03:22:12.409Z,11.80
2023-05-06T03:24:48.113Z,11.70
2023-05-06T03:27:20.484Z,11.70
2023-05-06T03:29:56.796Z,11.70
2023-05-06T03:32:31.036Z,11.70
2023-05-06T03:35:04.650Z,11.70
2023-05-06T03:37:38.025Z,11.80
2023-05-06T03:40:10.554Z,11.70
2023-05-06T03:42:43.342Z,11.70
2023-05-06T03:45:15.723Z,11.70
2023-05-06T03:47:49.525Z,11.60
2023-05-06T03:50:23.380Z,11.60
2023-05-06T03:52:58.039Z,11.60
2023-05-06T03:55:33.585Z,11.60
2023-05-06T03:58:06.368Z,11.60
2023-05-06T04:00:38.558Z,11.70
2023-05-06T04:03:11.966Z,11.60
2023-05-06T04:05:51.052Z,11.60
2023-05-06T04:08:27.632Z,11.60
2023-05-06T04:11:04.749Z,11.40
2023-05-06T04:13:37.994Z,11.50
2023-05-06T04:16:16.183Z,11.40
2023-05-06T04:18:49.694Z,11.30
2023-05-06T04:21:22.592Z,11.40
2023-05-06T04:24:02.768Z,11.50
2023-05-06T04:26:42.087Z,11.40
2023-05-06T04:29:14.827Z,11.40
2023-05-06T04:31:57.862Z,11.40
2023-05-06T04:34:32.722Z,11.40
2023-05-06T04:37:07.253Z,11.40
2023-05-06T04:39:48.942Z,11.40
2023-05-06T04:42:21.631Z,11.40
2023-05-06T04:45:01.584Z,11.40
2023-05-06T04:47:37.425Z,11.40
2023-05-06T04:50:10.955Z,11.40
2023-05-06T04:52:43.520Z,11.40
2023-05-06T04:55:17.692Z,11.40
2023-05-06T04:57:54.198Z,11.50
2023-05-06T05:00:26.637Z,11.60
2023-05-06T05:02:59.553Z,11.60
2023-05-06T05:05:33.688Z,11.70
2023-05-06T05:08:07.098Z,11.80
2023-05-06T05:10:43.983Z,11.90
2023-05-06T05:13:20.075Z,11.90
2023-05-06T05:15:56.548Z,12.10
2023-05-06T05:18:31.865Z,12.10
2023-05-06T05:21:10.098Z,12.20
2023-05-06T05:23:42.538Z,12.20
2023-05-06T05:26:15.569Z,12.30
2023-05-06T05:28:50.324Z,12.30
2023-05-06T05:31:23.057Z,12.30
2023-05-06T05:33:59.148Z,12.40
2023-05-06T05:36:32.279Z,12.40
2023-05-06T05:39:07.733Z,12.40
2023-05-06T05:41:44.500Z,12.40
2023-05-06T05:44:17.721Z,12.40
2023-05-06T05:46:51.041Z,12.40
2023-05-06T05:49:25.323Z,12.40
2023-05-06T05:51:59.475Z,12.60
2023-05-06T05:54:32.698Z,12.60
2023-05-06T05:57:05.193Z,12.60
2023-05-06T05:59:37.681Z,12.60
2023-05-06T06:02:11.960Z,12.50
2023-05-06T06:04:44.511Z,12.50
2023-05-06T06:07:16.854Z,12.60
2023-05-06T06:09:50.662Z,12.70
2023-05-06T06:12:25.619Z,12.80
2023-05-06T06:14:58.121Z,12.80
2023-05-06T06:17:32.330Z,12.90
2023-05-06T06:20:05.260Z,12.90
2023-05-06T06:22:37.614Z,12.90
2023-05-06T06:25:10.972Z,13.00
2023-05-06T06:27:43.443Z,13.00
2023-05-06T06:30:16.467Z,13.10
2023-05-06T06:32:50.999Z,13.10
2023-05-06T06:35:24.455Z,13.20
2023-05-06T06:37:56.764Z,13.20
2023-05-06T06:40:29.231Z,13.30
2023-05-06T06:43:01.729Z,13.20
2023-05-06T06:45:54.418Z,13.30
2023-05-06T06:48:26.702Z,13.20
2023-05-06T06:50:59.817Z,13.30
2023-05-06T06:53:32.374Z,13.30
2023-05-06T06:56:11.204Z,13.40
2023-05-06T06:58:43.394Z,13.30
2023-05-06T07:01:16.188Z,13.40
2023-05-06T07:03:48.387Z,13.40
2023-05-06T07:06:21.172Z,13.40
2023-05-06T07:08:53.441Z,13.50
2023-05-06T07:11:25.682Z,13.50
2023-05-06T07:13:59.073Z,13.60
2023-05-06T07:16:31.280Z,13.60
2023-05-06T07:19:03.758Z,13.60
2023-05-06T07:21:35.988Z,13.60
2023-05-06T07:24:08.809Z,13.70
2023-05-06T07:26:41.569Z,13.70
2023-05-06T07:29:14.098Z,13.60
2023-05-06T07:31:46.605Z,13.70
2023-05-06T07:34:20.649Z,13.80
2023-05-06T07:36:53.691Z,13.90
2023-05-06T07:39:25.894Z,13.90
2023-05-06T07:41:58.888Z,14.00
2023-05-06T07:44:31.127Z,14.10
2023-05-06T07:47:04.395Z,14.20
2023-05-06T07:49:36.808Z,14.30
2023-05-06T07:52:08.948Z,14.40
2023-05-06T07:54:41.498Z,14.40
2023-05-06T07:57:14.702Z,14.60
2023-05-06T07:59:51.643Z,14.70
2023-05-06T08:02:23.954Z,14.80
2023-05-06T08:04:56.129Z,14.90
2023-05-06T08:07:28.515Z,15.20
2023-05-06T08:10:01.186Z,15.20
2023-05-06T08:12:33.391Z,15.20
2023-05-06T08:15:06.252Z,15.20
2023-05-06T08:17:38.741Z,15.30
2023-05-06T08:20:11.577Z,15.40
2023-05-06T08:22:43.734Z,15.40
2023-05-06T08:25:17.048Z,15.50
2023-05-06T08:27:49.192Z,15.60
2023-05-06T08:30:21.317Z,15.70
2023-05-06T08:32:53.568Z,15.70
2023-05-06T08:35:26.463Z,15.80
2023-05-06T08:37:59.672Z,15.90
2023-05-06T08:40:33.975Z,16.10
2023-05-06T08:43:07.423Z,16.10
2023-05-06T08:45:41.439Z,16.10
2023-05-06T08:48:14.044Z,16.10
2023-05-06T08:50:49.217Z,16.10
2023-05-06T08:53:22.208Z,16.20
2023-05-06T08:55:55.387Z,16.20
2023-05-06T08:58:28.023Z,16.30
2023-05-06T09:01:01.105Z,16.30
2023-05-06T09:03:33.849Z,16.30
2023-05-06T09:06:06.222Z,16.30
2023-05-06T09:08:38.730Z,16.20
2023-05-06T09:11:41.141Z,16.20
2023-05-06T09:14:18.301Z,16.10
2023-05-06T09:16:52.925Z,16.10
2023-05-06T09:19:26.037Z,16.10
2023-05-06T09:21:58.464Z,16.20
2023-05-06T09:24:31.392Z,16.30
2023-05-06T09:27:04.300Z,16.40
2023-05-06T09:29:36.573Z,16.60
2023-05-06T09:32:10.591Z,16.80
2023-05-06T09:34:46.580Z,16.80
2023-05-06T09:37:21.118Z,16.80
2023-05-06T09:40:01.113Z,16.70
2023-05-06T09:42:34.605Z,16.50
2023-05-06T09:45:09.260Z,16.60
2023-05-06T09:47:42.665Z,16.80
2023-05-06T09:50:15.665Z,16.90
2023-05-06T09:52:49.646Z,17.00
2023-05-06T09:55:22.557Z,17.20
2023-05-06T09:57:55.712Z,17.40
2023-05-06T10:00:30.311Z,17.70
2023-05-06T10:03:03.677Z,17.70
2023-05-06T10:05:37.288Z,17.50
2023-05-06T10:08:11.145Z,17.50
2023-05-06T10:10:44.230Z,17.50
2023-05-06T10:13:17.144Z,17.60
2023-05-06T10:15:50.995Z,17.50
2023-05-06T10:18:25.907Z,17.60
2023-05-06T10:21:00.554Z,17.70
2023-05-06T10:23:45.139Z,17.70
2023-05-06T10:26:20.158Z,18.00
2023-05-06T10:28:53.947Z,18.20
2023-05-06T10:31:27.360Z,18.40
2023-05-06T10:34:03.290Z,18.60
2023-05-06T10:36:40.844Z,18.60
2023-05-06T10:39:14.472Z,18.60
2023-05-06T10:41:47.859Z,18.70
2023-05-06T10:44:58.571Z,18.60
2023-05-06T10:47:56.932Z,18.60
2023-05-06T10:50:29.538Z,18.30
2023-05-06T10:53:04.316Z,18.10
2023-05-06T10:55:41.149Z,18.10
2023-05-06T10:58:18.928Z,18.20
2023-05-06T11:00:58.370Z,18.60
2023-05-06T11:03:32.665Z,18.80
2023-05-06T11:06:05.480Z,18.60
2023-05-06T11:08:38.295Z,18.70
2023-05-06T11:11:55.597Z,18.60
2023-05-06T11:14:38.800Z,18.60
2023-05-06T11:17:30.911Z,18.50
2023-05-06T11:20:27.812Z,18.70
2023-05-06T11:23:00.187Z,18.80
2023-05-06T11:25:43.337Z,18.80
2023-05-06T11:28:16.136Z,18.80
2023-05-06T11:30:55.431Z,18.80
2023-05-06T11:33:34.068Z,18.80
2023-05-06T11:36:07.764Z,18.90
2023-05-06T11:38:49.977Z,18.90
2023-05-06T11:41:23.485Z,19.30
2023-05-06T11:43:55.697Z,19.50
2023-05-06T11:46:32.455Z,19.50
2023-05-06T11:49:04.885Z,19.50
2023-05-06T11:51:37.196Z,19.70
2023-05-06T11:54:11.287Z,20.10
2023-05-06T11:56:54.530Z,20.10
2023-05-06T11:59:37.599Z,20.10
2023-05-06T12:02:13.045Z,20.30
2023-05-06T12:04:47.560Z,20.30
2023-05-06T12:07:19.852Z,20.20
2023-05-06T12:09:53.140Z,20.00
2023-05-06T12:12:25.625Z,20.10
2023-05-06T12:14:58.375Z,20.10
2023-05-06T12:17:30.564Z,20.00
2023-05-06T12:20:03.476Z,19.90
2023-05-06T12:22:37.154Z,19.80
2023-05-06T12:25:13.434Z,19.80
2023-05-06T12:27:45.809Z,19.80
2023-05-06T12:30:30.373Z,19.70
2023-05-06T12:33:02.883Z,19.70
2023-05-06T12:35:35.546Z,20.00
2023-05-06T12:38:13.313Z,20.30
2023-05-06T12:40:53.885Z,20.20
2023-05-06T12:43:31.169Z,20.20
2023-05-06T12:46:10.082Z,20.70
2023-05-06T12:48:56.886Z,21.10
2023-05-06T12:51:31.198Z,21.60
2023-05-06T12:54:05.082Z,22.30
2023-05-06T12:56:37.276Z,22.20
2023-05-06T12:59:11.166Z,22.10
2023-05-06T13:01:43.298Z,21.90
2023-05-06T13:04:16.583Z,22.00
2023-05-06T13:06:49.896Z,22.40
2023-05-06T13:09:22.633Z,22.40
2023-05-06T13:11:55.420Z,23.00
2023-05-06T13:14:27.736Z,23.60
2023-05-06T13:17:01.509Z,23.70
2023-05-06T13:19:33.916Z,23.80
2023-05-06T13:22:06.025Z,23.80
2023-05-06T13:24:38.897Z,23.50
2023-05-06T13:27:11.966Z,23.10
2023-05-06T13:29:44.168Z,22.80
2023-05-06T13:32:16.871Z,22.30
2023-05-06T13:34:49.032Z,21.80
2023-05-06T13:37:22.994Z,21.80
2023-05-06T13:39:55.292Z,21.60
2023-05-06T13:42:28.201Z,21.60
2023-05-06T13:45:00.477Z,21.40
2023-05-06T13:47:33.288Z,21.40
2023-05-06T13:50:06.615Z,21.80
2023-05-06T13:52:39.053Z,22.10
2023-05-06T13:55:11.481Z,22.50
2023-05-06T13:57:43.904Z,23.00
2023-05-06T14:00:16.883Z,22.90
2023-05-06T14:02:49.767Z,22.70
2023-05-06T14:05:22.480Z,22.30
2023-05-06T14:07:54.854Z,22.30
2023-05-06T14:10:28.865Z,22.40
2023-05-06T14:13:01.457Z,22.70
2023-05-06T14:15:34.157Z,23.10
2023-05-06T14:18:06.428Z,23.10
2023-05-06T14:20:39.451Z,23.30
2023-05-06T14:23:11.618Z,23.80
2023-05-06T14:25:43.800Z,23.90
2023-05-06T14:28:16.103Z,23.60
2023-05-06T14:30:50.864Z,23.30
2023-05-06T14:33:23.692Z,22.70
2023-05-06T14:35:55.957Z,22.50
2023-05-06T14:38:28.148Z,22.30
2023-05-06T14:41:01.279Z,22.10
2023-05-06T14:43:33.576Z,21.80
2023-05-06T14:46:05.917Z,21.80
2023-05-06T14:48:38.218Z,21.80
2023-05-06T14:51:11.420Z,21.90
2023-05-06T14:53:44.450Z,21.90
2023-05-06T14:56:16.820Z,21.70
2023-05-06T14:58:49.020Z,21.50
2023-05-06T15:01:21.285Z,21.30
2023-05-06T15:03:53.534Z,21.20
2023-05-06T15:06:26.335Z,21.00
2023-05-06T15:08:58.849Z,20.90
2023-05-06T15:11:32.042Z,20.90
2023-05-06T15:14:04.173Z,20.90
2023-05-06T15:16:36.259Z,21.00
2023-05-06T15:19:08.522Z,21.10
2023-05-06T15:21:40.582Z,21.40
2023-05-06T15:24:12.769Z,21.50
2023-05-06T15:26:44.883Z,21.50
2023-05-06T15:29:17.939Z,21.20
2023-05-06T15:31:50.543Z,21.20
2023-05-06T15:34:23.388Z,21.10
2023-05-06T15:36:55.493Z,20.90
2023-05-06T15:39:28.006Z,20.90
2023-05-06T15:42:00.144Z,20.80
2023-05-06T15:44:33.861Z,20.70
2023-05-06T15:47:06.563Z,20.70
2023-05-06T15:52:13.816Z,20.40
2023-05-06T15:54:49.561Z,20.30
2023-05-06T15:57:22.488Z,20.10
2023-05-06T15:59:54.549Z,20.10
2023-05-06T16:02:27.444Z,20.10
2023-05-06T16:05:00.292Z,20.00
2023-05-06T16:07:32.520Z,20.00
2023-05-06T16:10:05.171Z,19.90
2023-05-06T16:12:37.592Z,19.80
2023-05-06T16:15:10.196Z,19.70
2023-05-06T16:17:42.419Z,19.70
2023-05-06T16:20:14.545Z,19.60
2023-05-06T16:22:50.900Z,19.60
2023-05-06T16:25:23.270Z,19.60
2023-05-06T16:27:56.362Z,19.50
2023-05-06T16:30:28.514Z,19.50
2023-05-06T16:33:00.709Z,19.40
2023-05-06T16:35:33.354Z,19.40
2023-05-06T16:38:05.480Z,19.30
2023-05-06T16:40:44.988Z,19.20
2023-05-06T16:43:18.998Z,19.20
2023-05-06T16:45:51.236Z,19.20
2023-05-06T16:48:23.894Z,19.20
2023-05-06T16:50:56.414Z,19.10
2023-05-06T16:53:29.593Z,19.10
2023-05-06T16:56:03.691Z,19.10
2023-05-06T16:58:36.088Z,19.10
2023-05-06T17:01:08.387Z,19.10
2023-05-06T17:03:40.847Z,19.00
2023-05-06T17:06:13.564Z,19.00
2023-05-06T17:08:46.791Z,18.90
2023-05-06T17:11:18.879Z,18.90
2023-05-06T17:13:51.289Z,18.80
2023-05-06T17:16:23.501Z,18.90
2023-05-06T17:18:55.572Z,18.90
2023-05-06T17:21:28.081Z,18.90
2023-05-06T17:24:00.824Z,18.90
2023-05-06T17:26:35.147Z,18.90
2023-05-06T17:29:08.038Z,18.90
2023-05-06T17:31:40.177Z,18.90
2023-05-06T17:34:12.369Z,18.90
2023-05-06T17:36:44.536Z,18.90
2023-05-06T17:39:17.121Z,18.90
2023-05-06T17:41:49.722Z,18.80
2023-05-06T17:44:22.114Z,18.70
2023-05-06T17:46:54.415Z,18.60
2023-05-06T17:49:26.888Z,18.50
2023-05-06T17:52:01.574Z,18.40
2023-05-06T17:54:38.441Z,18.40
2023-05-06T17:57:11.021Z,18.30
2023-05-06T17:59:43.521Z,18.30
2023-05-06T18:02:16.187Z,18.20
2023-05-06T18:04:48.746Z,18.10
2023-05-06T18:07:20.858Z,18.00
2023-05-06T18:09:53.263Z,17.90
2023-05-06T18:12:25.482Z,17.80
2023-05-06T18:14:58.035Z,17.70
2023-05-06T18:17:30.161Z,17.70
2023-05-06T18:20:02.368Z,17.60
2023-05-06T18:22:35.052Z,17.40
2023-05-06T18:25:08.060Z,17.30
2023-05-06T18:27:41.128Z,17.10
2023-05-06T18:30:14.763Z,17.00
2023-05-06T18:32:48.223Z,16.90
2023-05-06T18:35:22.380Z,16.80
2023-05-06T18:37:54.483Z,16.80
2023-05-06T18:40:26.654Z,16.70
2023-05-06T18:42:58.927Z,16.60
2023-05-06T18:45:31.779Z,16.50
2023-05-06T18:48:04.815Z,16.40
2023-05-06T18:50:37.836Z,16.30
2023-05-06T18:53:10.038Z,16.20
2023-05-06T18:55:42.189Z,16.20
2023-05-06T18:58:14.292Z,16.10
2023-05-06T19:00:46.502Z,16.00
2023-05-06T19:03:18.944Z,15.90
2023-05-06T19:05:51.112Z,15.90
2023-05-06T19:08:23.533Z,15.80
2023-05-06T19:10:55.931Z,15.70
2023-05-06T19:13:28.750Z,15.70
2023-05-06T19:16:01.237Z,15.70
2023-05-06T19:18:33.323Z,15.60
2023-05-06T19:21:05.976Z,15.60
2023-05-06T19:23:38.273Z,15.50
2023-05-06T19:26:12.125Z,15.40
2023-05-06T19:28:44.292Z,15.40
2023-05-06T19:31:17.003Z,15.30
2023-05-06T19:33:49.169Z,15.40
2023-05-06T19:36:21.357Z,15.40
2023-05-06T19:38:53.965Z,15.40
2023-05-06T19:41:26.941Z,15.30
2023-05-06T19:43:58.970Z,15.20
2023-05-06T19:46:31.045Z,15.20
2023-05-06T19:49:03.340Z,15.10
2023-05-06T19:51:35.410Z,15.00
2023-05-06T19:54:07.697Z,15.00
2023-05-06T19:56:39.979Z,14.90
2023-05-06T19:59:12.157Z,14.90
2023-05-06T20:01:44.502Z,14.80
2023-05-06T20:04:16.571Z,14.80
2023-05-06T20:06:48.842Z,14.70
2023-05-06T20:09:21.207Z,14.60
2023-05-06T20:11:53.842Z,14.60
2023-05-06T20:14:26.303Z,14.60
2023-05-06T20:16:58.859Z,14.60
2023-05-06T20:19:31.457Z,14.50
2023-05-06T20:22:03.550Z,14.50
2023-05-06T20:24:36.851Z,14.40
2023-05-06T20:27:09.333Z,14.40
2023-05-06T20:29:41.549Z,14.50
2023-05-06T20:32:13.673Z,14.50
2023-05-06T20:34:46.326Z,14.40
2023-05-06T20:37:18.376Z,14.30
2023-05-06T20:39:50.689Z,14.20
2023-05-06T20:42:23.126Z,14.20
2023-05-06T20:44:55.196Z,14.10
2023-05-06T20:47:27.855Z,14.10
2023-05-06T20:49:59.932Z,14.10
2023-05-06T20:52:34.251Z,14.00
2023-05-06T20:55:07.805Z,14.00
2023-05-06T20:57:44.015Z,13.90
2023-05-06T21:00:16.635Z,13.90
2023-05-06T21:02:48.851Z,13.90
2023-05-06T21:05:21.290Z,13.90
2023-05-06T21:07:54.029Z,13.90
2023-05-06T21:10:26.445Z,13.90
2023-05-06T21:12:58.827Z,13.90
2023-05-06T21:15:32.769Z,13.70
2023-05-06T21:18:05.066Z,13.60
2023-05-06T21:20:37.490Z,13.60
2023-05-06T21:23:09.662Z,13.60
2023-05-06T21:25:41.946Z,13.60
2023-05-06T21:28:14.466Z,13.60
2023-05-06T21:30:46.782Z,13.60
2023-05-06T21:33:19.122Z,13.60
2023-05-06T21:35:51.232Z,13.60
2023-05-06T21:38:23.656Z,13.50
2023-05-06T21:40:56.505Z,13.50
2023-05-06T21:43:30.664Z,13.40
2023-05-06T21:46:04.574Z,13.40
2023-05-06T21:48:36.747Z,13.40
2023-05-06T21:51:09.166Z,13.50
2023-05-06T21:53:41.537Z,13.40
2023-05-06T21:56:13.576Z,13.50
2023-05-06T21:58:45.941Z,13.60
2023-05-06T22:01:18.309Z,13.50
2023-05-06T22:03:51.017Z,13.50
2023-05-06T22:06:23.227Z,13.40
2023-05-06T22:08:55.620Z,13.40
2023-05-06T22:11:27.700Z,13.30
2023-05-06T22:13:59.773Z,13.20
2023-05-06T22:16:32.198Z,13.10
2023-05-06T22:19:05.884Z,13.10
2023-05-06T22:21:38.993Z,13.00
2023-05-06T22:24:11.242Z,13.00
2023-05-06T22:26:43.368Z,13.00
2023-05-06T22:29:15.685Z,13.00
2023-05-06T22:31:48.176Z,13.00
2023-05-06T22:34:20.835Z,13.00
2023-05-06T22:36:53.182Z,13.00
2023-05-06T22:39:25.454Z,13.00
2023-05-06T22:41:58.074Z,13.00
2023-05-06T22:44:30.424Z,13.00
2023-05-06T22:47:02.995Z,12.90
2023-05-06T22:49:36.799Z,12.90
2023-05-06T22:52:09.014Z,12.90
2023-05-06T22:54:41.172Z,12.90
2023-05-06T22:57:13.318Z,12.80
2023-05-06T22:59:46.027Z,12.80
2023-05-06T23:02:18.476Z,12.70
2023-05-06T23:04:50.734Z,12.60
2023-05-06T23:07:23.018Z,12.60
2023-05-06T23:09:55.295Z,12.50
2023-05-06T23:12:31.810Z,12.40
2023-05-06T23:15:04.265Z,12.40
2023-05-06T23:17:37.247Z,12.30
2023-05-06T23:20:12.104Z,12.30
2023-05-06T23:22:44.569Z,12.40
2023-05-06T23:25:17.222Z,12.40
2023-05-06T23:27:49.613Z,12.40
2023-05-06T23:30:21.665Z,12.30
2023-05-06T23:32:53.862Z,12.30
2023-05-06T23:35:26.201Z,12.30
2023-05-06T23:37:58.269Z,12.30
2023-05-06T23:40:30.604Z,12.50
2023-05-06T23:43:02.798Z,12.60
2023-05-06T23:45:35.168Z,12.60
2023-05-06T23:48:07.478Z,12.60
2023-05-06T23:50:40.211Z,12.50
2023-05-06T23:53:12.472Z,12.50
2023-05-06T23:55:44.624Z,12.50
2023-05-06T23:58:16.795Z,12.40
